sensor_id;sensor_type;location;lat;lon;timestamp;pressure;altitude;pressure_sealevel;temperature;humidity
44027;BME280;29696;55.698;37.460;2022-09-01T00:02:02;98852.16;;;11.18;71.98
44027;BME280;29696;55.698;37.460;2022-09-01T00:04:37;98844.41;;;11.17;72.70
44027;BME280;29696;55.698;37.460;2022-09-01T00:07:07;98857.13;;;11.13;72.85
44027;BME280;29696;55.698;37.460;2022-09-01T00:09:34;98844.84;;;11.04;73.21
44027;BME280;29696;55.698;37.460;2022-09-01T00:12:01;98847.09;;;10.99;73.28
44027;BME280;29696;55.698;37.460;2022-09-01T00:14:31;98857.50;;;11.01;73.54
44027;BME280;29696;55.698;37.460;2022-09-01T00:17:00;98853.84;;;10.93;73.62
44027;BME280;29696;55.698;37.460;2022-09-01T00:19:27;98848.50;;;10.85;73.74
44027;BME280;29696;55.698;37.460;2022-09-01T00:21:55;98856.44;;;10.85;73.90
44027;BME280;29696;55.698;37.460;2022-09-01T00:24:21;98855.91;;;10.82;73.62
44027;BME280;29696;55.698;37.460;2022-09-01T00:26:48;98841.34;;;10.78;74.50
44027;BME280;29696;55.698;37.460;2022-09-01T00:29:14;98845.13;;;10.75;74.08
44027;BME280;29696;55.698;37.460;2022-09-01T00:31:41;98838.97;;;10.66;74.45
44027;BME280;29696;55.698;37.460;2022-09-01T00:34:09;98844.75;;;10.70;74.29
44027;BME280;29696;55.698;37.460;2022-09-01T00:36:35;98854.38;;;10.71;74.28
44027;BME280;29696;55.698;37.460;2022-09-01T00:39:03;98853.38;;;10.72;74.68
44027;BME280;29696;55.698;37.460;2022-09-01T00:41:32;98846.13;;;10.74;74.60
44027;BME280;29696;55.698;37.460;2022-09-01T00:44:06;98850.19;;;10.86;74.42
44027;BME280;29696;55.698;37.460;2022-09-01T00:46:36;98851.97;;;10.86;73.85
44027;BME280;29696;55.698;37.460;2022-09-01T00:49:39;98865.13;;;11.04;73.95
44027;BME280;29696;55.698;37.460;2022-09-01T00:52:51;98851.91;;;11.04;73.64
44027;BME280;29696;55.698;37.460;2022-09-01T00:55:21;98861.53;;;11.05;73.10
44027;BME280;29696;55.698;37.460;2022-09-01T00:57:48;98858.50;;;11.00;73.17
44027;BME280;29696;55.698;37.460;2022-09-01T01:00:19;98860.84;;;11.03;72.59
44027;BME280;29696;55.698;37.460;2022-09-01T01:02:47;98854.34;;;10.97;72.36
44027;BME280;29696;55.698;37.460;2022-09-01T01:05:15;98851.69;;;10.89;72.10
44027;BME280;29696;55.698;37.460;2022-09-01T01:07:43;98859.75;;;10.87;72.64
44027;BME280;29696;55.698;37.460;2022-09-01T01:10:13;98857.25;;;10.86;72.61
44027;BME280;29696;55.698;37.460;2022-09-01T01:12:41;98859.53;;;10.81;72.78
44027;BME280;29696;55.698;37.460;2022-09-01T01:15:11;98856.72;;;10.82;72.73
44027;BME280;29696;55.698;37.460;2022-09-01T01:17:37;98851.94;;;10.78;72.66
44027;BME280;29696;55.698;37.460;2022-09-01T01:20:06;98855.41;;;10.78;72.43
44027;BME280;29696;55.698;37.460;2022-09-01T01:23:20;98857.78;;;10.89;73.06
44027;BME280;29696;55.698;37.460;2022-09-01T01:25:53;98851.72;;;10.71;72.41
44027;BME280;29696;55.698;37.460;2022-09-01T01:28:32;98850.53;;;10.65;72.30
44027;BME280;29696;55.698;37.460;2022-09-01T01:31:21;98850.03;;;10.70;72.94
44027;BME280;29696;55.698;37.460;2022-09-01T01:33:53;98847.81;;;10.57;73.20
44027;BME280;29696;55.698;37.460;2022-09-01T01:36:40;98845.84;;;10.59;73.35
44027;BME280;29696;55.698;37.460;2022-09-01T01:39:16;98835.97;;;10.43;73.31
44027;BME280;29696;55.698;37.460;2022-09-01T01:41:45;98843.66;;;10.37;73.22
44027;BME280;29696;55.698;37.460;2022-09-01T01:44:17;98836.34;;;10.31;73.39
44027;BME280;29696;55.698;37.460;2022-09-01T01:46:46;98844.44;;;10.29;73.79
44027;BME280;29696;55.698;37.460;2022-09-01T01:49:18;98842.03;;;10.26;74.09
44027;BME280;29696;55.698;37.460;2022-09-01T01:51:49;98835.41;;;10.22;74.21
44027;BME280;29696;55.698;37.460;2022-09-01T01:54:16;98845.97;;;10.22;73.96
44027;BME280;29696;55.698;37.460;2022-09-01T01:56:45;98843.34;;;10.22;74.15
44027;BME280;29696;55.698;37.460;2022-09-01T01:59:12;98836.72;;;10.18;74.11
44027;BME280;29696;55.698;37.460;2022-09-01T02:01:41;98845.28;;;10.20;74.11
44027;BME280;29696;55.698;37.460;2022-09-01T02:04:10;98845.16;;;10.21;73.72
44027;BME280;29696;55.698;37.460;2022-09-01T02:06:37;98838.66;;;10.16;73.48
44027;BME280;29696;55.698;37.460;2022-09-01T02:09:11;98845.59;;;10.17;73.97
44027;BME280;29696;55.698;37.460;2022-09-01T02:11:38;98847.72;;;10.13;73.99
44027;BME280;29696;55.698;37.460;2022-09-01T02:14:07;98840.09;;;10.10;73.83
44027;BME280;29696;55.698;37.460;2022-09-01T02:16:35;98844.16;;;10.04;73.75
44027;BME280;29696;55.698;37.460;2022-09-01T02:19:05;98848.53;;;9.96;73.77
44027;BME280;29696;55.698;37.460;2022-09-01T02:21:33;98838.56;;;9.90;74.24
44027;BME280;29696;55.698;37.460;2022-09-01T02:24:02;98842.88;;;9.91;74.11
44027;BME280;29696;55.698;37.460;2022-09-01T02:26:33;98848.75;;;9.85;74.22
44027;BME280;29696;55.698;37.460;2022-09-01T02:29:02;98841.75;;;9.75;74.39
44027;BME280;29696;55.698;37.460;2022-09-01T02:31:34;98852.81;;;9.79;74.75
44027;BME280;29696;55.698;37.460;2022-09-01T02:34:08;98854.47;;;9.80;74.90
44027;BME280;29696;55.698;37.460;2022-09-01T02:36:41;98857.94;;;9.80;74.74
44027;BME280;29696;55.698;37.460;2022-09-01T02:39:15;98850.19;;;9.79;74.62
44027;BME280;29696;55.698;37.460;2022-09-01T02:41:42;98853.78;;;9.78;75.01
44027;BME280;29696;55.698;37.460;2022-09-01T02:44:09;98858.91;;;9.79;75.09
44027;BME280;29696;55.698;37.460;2022-09-01T02:46:44;98856.13;;;9.81;74.80
44027;BME280;29696;55.698;37.460;2022-09-01T02:49:21;98858.47;;;9.84;75.25
44027;BME280;29696;55.698;37.460;2022-09-01T02:51:51;98848.66;;;9.76;74.79
44027;BME280;29696;55.698;37.460;2022-09-01T02:54:21;98845.03;;;9.77;74.80
44027;BME280;29696;55.698;37.460;2022-09-01T02:56:47;98846.72;;;9.78;74.82
44027;BME280;29696;55.698;37.460;2022-09-01T02:59:17;98849.88;;;9.82;74.96
44027;BME280;29696;55.698;37.460;2022-09-01T03:01:49;98836.09;;;9.88;74.38
44027;BME280;29696;55.698;37.460;2022-09-01T03:04:17;98839.94;;;9.94;74.08
44027;BME280;29696;55.698;37.460;2022-09-01T03:06:45;98841.69;;;10.03;73.68
44027;BME280;29696;55.698;37.460;2022-09-01T03:09:15;98837.03;;;10.15;73.25
44027;BME280;29696;55.698;37.460;2022-09-01T03:11:45;98842.03;;;10.26;72.98
44027;BME280;29696;55.698;37.460;2022-09-01T03:14:13;98835.38;;;10.32;72.89
44027;BME280;29696;55.698;37.460;2022-09-01T03:16:40;98838.09;;;10.40;72.27
44027;BME280;29696;55.698;37.460;2022-09-01T03:19:08;98841.25;;;10.43;72.12
44027;BME280;29696;55.698;37.460;2022-09-01T03:21:38;98846.09;;;10.48;72.13
44027;BME280;29696;55.698;37.460;2022-09-01T03:24:11;98845.63;;;10.52;71.49
44027;BME280;29696;55.698;37.460;2022-09-01T03:26:41;98845.16;;;10.57;71.18
44027;BME280;29696;55.698;37.460;2022-09-01T03:29:08;98848.31;;;10.61;70.74
44027;BME280;29696;55.698;37.460;2022-09-01T03:31:36;98848.84;;;10.64;69.84
44027;BME280;29696;55.698;37.460;2022-09-01T03:34:04;98852.03;;;10.68;69.57
44027;BME280;29696;55.698;37.460;2022-09-01T03:36:35;98846.56;;;10.69;68.92
44027;BME280;29696;55.698;37.460;2022-09-01T03:39:02;98846.75;;;10.68;68.71
44027;BME280;29696;55.698;37.460;2022-09-01T03:41:31;98850.34;;;10.67;69.12
44027;BME280;29696;55.698;37.460;2022-09-01T03:43:58;98854.72;;;10.76;68.89
44027;BME280;29696;55.698;37.460;2022-09-01T03:46:27;98861.16;;;11.00;67.60
44027;BME280;29696;55.698;37.460;2022-09-01T03:48:58;98867.38;;;11.16;66.92
44027;BME280;29696;55.698;37.460;2022-09-01T03:51:26;98855.69;;;11.27;66.63
44027;BME280;29696;55.698;37.460;2022-09-01T03:53:58;98867.00;;;11.37;65.96
44027;BME280;29696;55.698;37.460;2022-09-01T03:56:26;98872.66;;;11.51;65.69
44027;BME280;29696;55.698;37.460;2022-09-01T03:58:59;98859.47;;;11.59;65.07
44027;BME280;29696;55.698;37.460;2022-09-01T04:01:29;98863.00;;;11.68;65.15
44027;BME280;29696;55.698;37.460;2022-09-01T04:04:09;98849.28;;;11.80;64.59
44027;BME280;29696;55.698;37.460;2022-09-01T04:06:41;98850.38;;;12.04;63.23
44027;BME280;29696;55.698;37.460;2022-09-01T04:09:08;98855.88;;;12.19;61.66
44027;BME280;29696;55.698;37.460;2022-09-01T04:11:37;98853.91;;;12.21;61.61
44027;BME280;29696;55.698;37.460;2022-09-01T04:14:04;98847.56;;;12.14;61.42
44027;BME280;29696;55.698;37.460;2022-09-01T04:16:34;98844.91;;;12.05;61.40
44027;BME280;29696;55.698;37.460;2022-09-01T04:19:22;98853.31;;;11.93;61.57
44027;BME280;29696;55.698;37.460;2022-09-01T04:21:59;98860.25;;;11.85;62.19
44027;BME280;29696;55.698;37.460;2022-09-01T04:24:30;98848.44;;;11.72;62.52
44027;BME280;29696;55.698;37.460;2022-09-01T04:26:59;98863.13;;;11.66;63.24
44027;BME280;29696;55.698;37.460;2022-09-01T04:29:30;98859.47;;;11.59;62.85
44027;BME280;29696;55.698;37.460;2022-09-01T04:32:00;98855.31;;;11.56;63.40
44027;BME280;29696;55.698;37.460;2022-09-01T04:34:30;98854.81;;;11.53;63.63
44027;BME280;29696;55.698;37.460;2022-09-01T04:37:29;98856.88;;;11.75;63.69
44027;BME280;29696;55.698;37.460;2022-09-01T04:39:58;98855.50;;;11.63;63.24
44027;BME280;29696;55.698;37.460;2022-09-01T04:42:28;98858.19;;;11.71;62.36
44027;BME280;29696;55.698;37.460;2022-09-01T04:44:58;98855.72;;;11.70;61.99
44027;BME280;29696;55.698;37.460;2022-09-01T04:47:27;98854.06;;;11.69;61.80
44027;BME280;29696;55.698;37.460;2022-09-01T04:49:58;98858.50;;;11.68;61.73
44027;BME280;29696;55.698;37.460;2022-09-01T04:52:28;98861.66;;;11.72;61.21
44027;BME280;29696;55.698;37.460;2022-09-01T04:54:55;98852.59;;;11.74;61.16
44027;BME280;29696;55.698;37.460;2022-09-01T04:57:22;98863.03;;;11.76;60.61
44027;BME280;29696;55.698;37.460;2022-09-01T04:59:54;98858.22;;;11.79;60.77
44027;BME280;29696;55.698;37.460;2022-09-01T05:02:22;98859.88;;;11.80;60.89
44027;BME280;29696;55.698;37.460;2022-09-01T05:04:52;98857.44;;;11.87;60.40
44027;BME280;29696;55.698;37.460;2022-09-01T05:07:19;98863.25;;;11.99;60.36
44027;BME280;29696;55.698;37.460;2022-09-01T05:09:47;98867.78;;;12.15;59.85
44027;BME280;29696;55.698;37.460;2022-09-01T05:12:33;98863.31;;;12.23;59.14
44027;BME280;29696;55.698;37.460;2022-09-01T05:15:01;98863.31;;;12.23;59.51
44027;BME280;29696;55.698;37.460;2022-09-01T05:17:32;98859.34;;;12.27;59.57
44027;BME280;29696;55.698;37.460;2022-09-01T05:19:58;98854.88;;;12.28;58.90
44027;BME280;29696;55.698;37.460;2022-09-01T05:22:25;98868.28;;;12.34;59.09
44027;BME280;29696;55.698;37.460;2022-09-01T05:25:00;98875.25;;;12.44;59.06
44027;BME280;29696;55.698;37.460;2022-09-01T05:27:30;98876.59;;;12.48;58.23
44027;BME280;29696;55.698;37.460;2022-09-01T05:29:57;98865.34;;;12.46;58.03
44027;BME280;29696;55.698;37.460;2022-09-01T05:32:26;98868.31;;;12.51;57.91
44027;BME280;29696;55.698;37.460;2022-09-01T05:34:53;98869.63;;;12.55;57.77
44027;BME280;29696;55.698;37.460;2022-09-01T05:37:20;98865.84;;;12.57;57.33
44027;BME280;29696;55.698;37.460;2022-09-01T05:39:46;98862.38;;;12.57;56.57
44027;BME280;29696;55.698;37.460;2022-09-01T05:42:13;98869.63;;;12.55;56.69
44027;BME280;29696;55.698;37.460;2022-09-01T05:44:39;98859.53;;;12.59;56.41
44027;BME280;29696;55.698;37.460;2022-09-01T05:47:10;98864.19;;;12.56;57.40
44027;BME280;29696;55.698;37.460;2022-09-01T05:49:41;98863.03;;;12.51;55.91
44027;BME280;29696;55.698;37.460;2022-09-01T05:52:07;98867.97;;;12.46;56.40
44027;BME280;29696;55.698;37.460;2022-09-01T05:54:35;98871.44;;;12.46;56.43
44027;BME280;29696;55.698;37.460;2022-09-01T05:57:03;98874.94;;;12.55;56.46
44027;BME280;29696;55.698;37.460;2022-09-01T05:59:30;98870.31;;;12.57;56.03
44027;BME280;29696;55.698;37.460;2022-09-01T06:02:10;98874.44;;;12.51;55.20
44027;BME280;29696;55.698;37.460;2022-09-01T06:04:37;98870.78;;;12.44;54.58
44027;BME280;29696;55.698;37.460;2022-09-01T06:07:14;98869.63;;;12.47;54.96
44027;BME280;29696;55.698;37.460;2022-09-01T06:09:46;98866.81;;;12.65;54.10
44027;BME280;29696;55.698;37.460;2022-09-01T06:12:15;98868.31;;;12.84;53.46
44027;BME280;29696;55.698;37.460;2022-09-01T06:14:50;98860.00;;;12.95;53.44
44027;BME280;29696;55.698;37.460;2022-09-01T06:17:20;98854.34;;;12.98;52.15
44027;BME280;29696;55.698;37.460;2022-09-01T06:19:54;98864.13;;;13.06;51.84
44027;BME280;29696;55.698;37.460;2022-09-01T06:22:23;98850.72;;;12.91;50.64
44027;BME280;29696;55.698;37.460;2022-09-01T06:24:51;98861.00;;;12.86;51.15
44027;BME280;29696;55.698;37.460;2022-09-01T06:27:20;98854.53;;;12.88;51.47
44027;BME280;29696;55.698;37.460;2022-09-01T06:29:48;98852.22;;;12.93;51.73
44027;BME280;29696;55.698;37.460;2022-09-01T06:32:19;98856.34;;;13.04;51.20
44027;BME280;29696;55.698;37.460;2022-09-01T06:34:46;98862.66;;;12.95;51.59
44027;BME280;29696;55.698;37.460;2022-09-01T06:37:16;98867.81;;;12.88;51.77
44027;BME280;29696;55.698;37.460;2022-09-01T06:39:49;98865.97;;;12.89;52.53
44027;BME280;29696;55.698;37.460;2022-09-01T06:42:16;98873.44;;;12.93;52.45
44027;BME280;29696;55.698;37.460;2022-09-01T06:44:53;98863.66;;;12.94;52.48
44027;BME280;29696;55.698;37.460;2022-09-01T06:47:20;98871.47;;;12.95;52.60
44027;BME280;29696;55.698;37.460;2022-09-01T06:49:46;98865.47;;;12.85;53.15
44027;BME280;29696;55.698;37.460;2022-09-01T06:52:19;98875.59;;;12.73;53.43
44027;BME280;29696;55.698;37.460;2022-09-01T06:54:50;98875.59;;;12.73;54.79
44027;BME280;29696;55.698;37.460;2022-09-01T06:57:19;98873.13;;;12.72;54.77
44027;BME280;29696;55.698;37.460;2022-09-01T06:59:48;98874.09;;;12.71;54.42
44027;BME280;29696;55.698;37.460;2022-09-01T07:02:15;98880.22;;;12.79;54.52
44027;BME280;29696;55.698;37.460;2022-09-01T07:05:06;98879.91;;;12.83;54.17
44027;BME280;29696;55.698;37.460;2022-09-01T07:07:33;98885.69;;;12.86;53.57
44027;BME280;29696;55.698;37.460;2022-09-01T07:10:41;98888.03;;;12.89;54.05
44027;BME280;29696;55.698;37.460;2022-09-01T07:13:20;98884.88;;;12.94;54.10
44027;BME280;29696;55.698;37.460;2022-09-01T07:15:53;98896.63;;;12.83;53.67
44027;BME280;29696;55.698;37.460;2022-09-01T07:18:22;98892.66;;;12.79;54.29
44027;BME280;29696;55.698;37.460;2022-09-01T07:20:51;98888.84;;;12.82;54.33
44027;BME280;29696;55.698;37.460;2022-09-01T07:23:19;98895.13;;;12.97;54.47
44027;BME280;29696;55.698;37.460;2022-09-01T07:25:48;98892.47;;;13.13;54.25
44027;BME280;29696;55.698;37.460;2022-09-01T07:28:35;98884.16;;;13.24;53.43
44027;BME280;29696;55.698;37.460;2022-09-01T07:31:03;98891.47;;;13.31;53.49
44027;BME280;29696;55.698;37.460;2022-09-01T07:33:30;98887.97;;;13.38;53.40
44027;BME280;29696;55.698;37.460;2022-09-01T07:36:01;98882.53;;;13.32;53.29
44027;BME280;29696;55.698;37.460;2022-09-01T07:38:30;98879.84;;;13.23;53.25
44027;BME280;29696;55.698;37.460;2022-09-01T07:40:57;98887.50;;;13.27;52.74
44027;BME280;29696;55.698;37.460;2022-09-01T07:43:45;98879.50;;;13.18;52.26
44027;BME280;29696;55.698;37.460;2022-09-01T07:46:46;98885.84;;;13.09;52.33
44027;BME280;29696;55.698;37.460;2022-09-01T07:49:18;98888.00;;;13.06;52.04
44027;BME280;29696;55.698;37.460;2022-09-01T07:51:45;98891.63;;;13.13;52.67
44027;BME280;29696;55.698;37.460;2022-09-01T07:54:19;98891.16;;;13.26;52.04
44027;BME280;29696;55.698;37.460;2022-09-01T07:56:50;98889.81;;;13.38;51.62
44027;BME280;29696;55.698;37.460;2022-09-01T07:59:17;98896.88;;;13.54;50.93
44027;BME280;29696;55.698;37.460;2022-09-01T08:01:52;98897.31;;;14.05;51.37
44027;BME280;29696;55.698;37.460;2022-09-01T08:04:19;98894.00;;;14.03;48.99
44027;BME280;29696;55.698;37.460;2022-09-01T08:06:48;98887.94;;;14.17;48.59
44027;BME280;29696;55.698;37.460;2022-09-01T08:09:15;98889.75;;;14.25;47.72
44027;BME280;29696;55.698;37.460;2022-09-01T08:11:41;98892.91;;;14.20;46.93
44027;BME280;29696;55.698;37.460;2022-09-01T08:14:08;98892.00;;;14.05;47.20
44027;BME280;29696;55.698;37.460;2022-09-01T08:16:34;98882.47;;;13.87;47.83
44027;BME280;29696;55.698;37.460;2022-09-01T08:19:02;98883.38;;;13.72;48.08
44027;BME280;29696;55.698;37.460;2022-09-01T08:21:36;98895.97;;;13.69;48.70
44027;BME280;29696;55.698;37.460;2022-09-01T08:24:09;98886.97;;;13.79;47.87
44027;BME280;29696;55.698;37.460;2022-09-01T08:26:36;98890.44;;;13.87;47.35
44027;BME280;29696;55.698;37.460;2022-09-01T08:29:04;98892.69;;;13.99;48.07
44027;BME280;29696;55.698;37.460;2022-09-01T08:31:38;98888.69;;;14.03;47.38
44027;BME280;29696;55.698;37.460;2022-09-01T08:34:05;98895.66;;;14.04;47.22
44027;BME280;29696;55.698;37.460;2022-09-01T08:36:32;98900.63;;;14.07;47.65
44027;BME280;29696;55.698;37.460;2022-09-01T08:38:59;98897.84;;;14.00;46.39
44027;BME280;29696;55.698;37.460;2022-09-01T08:45:36;98902.16;;;14.01;47.87
44027;BME280;29696;55.698;37.460;2022-09-01T08:48:20;98901.56;;;13.91;47.98
44027;BME280;29696;55.698;37.460;2022-09-01T08:50:55;98901.59;;;13.83;48.28
44027;BME280;29696;55.698;37.460;2022-09-01T08:53:42;98905.53;;;13.87;48.12
44027;BME280;29696;55.698;37.460;2022-09-01T08:56:11;98911.19;;;13.84;48.03
44027;BME280;29696;55.698;37.460;2022-09-01T08:58:39;98905.50;;;13.95;47.40
44027;BME280;29696;55.698;37.460;2022-09-01T09:01:44;98908.34;;;14.25;47.35
44027;BME280;29696;55.698;37.460;2022-09-01T09:04:48;98906.84;;;14.53;46.91
44027;BME280;29696;55.698;37.460;2022-09-01T09:10:24;98923.66;;;14.54;46.16
44027;BME280;29696;55.698;37.460;2022-09-01T09:16:12;98925.84;;;14.42;47.05
44027;BME280;29696;55.698;37.460;2022-09-01T09:18:51;98931.22;;;14.34;47.61
44027;BME280;29696;55.698;37.460;2022-09-01T09:21:24;98927.16;;;14.15;47.75
44027;BME280;29696;55.698;37.460;2022-09-01T09:24:45;98926.66;;;14.11;48.38
44027;BME280;29696;55.698;37.460;2022-09-01T09:26:49;98933.81;;;14.11;48.20
44027;BME280;29696;55.698;37.460;2022-09-01T09:29:15;98938.78;;;14.14;47.52
44027;BME280;29696;55.698;37.460;2022-09-01T09:31:43;98925.50;;;14.14;46.45
44027;BME280;29696;55.698;37.460;2022-09-01T09:37:28;98927.03;;;14.39;45.95
44027;BME280;29696;55.698;37.460;2022-09-01T09:40:22;98949.56;;;14.52;45.87
44027;BME280;29696;55.698;37.460;2022-09-01T09:43:12;98936.03;;;14.61;45.19
44027;BME280;29696;55.698;37.460;2022-09-01T09:45:40;98928.09;;;14.53;45.38
44027;BME280;29696;55.698;37.460;2022-09-01T09:48:27;98936.91;;;14.77;45.21
44027;BME280;29696;55.698;37.460;2022-09-01T09:50:53;98937.75;;;14.54;45.10
44027;BME280;29696;55.698;37.460;2022-09-01T09:53:46;98941.25;;;14.78;45.18
44027;BME280;29696;55.698;37.460;2022-09-01T09:56:20;98940.47;;;14.69;45.95
44027;BME280;29696;55.698;37.460;2022-09-01T09:58:49;98946.09;;;14.51;45.66
44027;BME280;29696;55.698;37.460;2022-09-01T10:01:40;98956.53;;;14.76;45.73
44027;BME280;29696;55.698;37.460;2022-09-01T10:04:07;98948.41;;;14.46;45.32
44027;BME280;29696;55.698;37.460;2022-09-01T10:06:41;98952.00;;;14.61;44.97
44027;BME280;29696;55.698;37.460;2022-09-01T10:09:36;98950.97;;;14.86;45.00
44027;BME280;29696;55.698;37.460;2022-09-01T10:12:04;98955.06;;;14.73;44.33
44027;BME280;29696;55.698;37.460;2022-09-01T10:14:41;98959.00;;;15.00;44.76
44027;BME280;29696;55.698;37.460;2022-09-01T10:17:13;98945.78;;;14.92;44.75
44027;BME280;29696;55.698;37.460;2022-09-01T10:19:47;98954.31;;;14.88;44.47
44027;BME280;29696;55.698;37.460;2022-09-01T10:22:15;98953.28;;;14.66;44.49
44027;BME280;29696;55.698;37.460;2022-09-01T10:24:42;98960.97;;;14.60;45.20
44027;BME280;29696;55.698;37.460;2022-09-01T10:27:21;98965.25;;;14.70;46.20
44027;BME280;29696;55.698;37.460;2022-09-01T10:30:16;98966.00;;;14.78;45.88
44027;BME280;29696;55.698;37.460;2022-09-01T10:32:55;98965.91;;;14.72;45.37
44027;BME280;29696;55.698;37.460;2022-09-01T10:35:31;98962.81;;;14.83;45.05
44027;BME280;29696;55.698;37.460;2022-09-01T10:38:03;98968.06;;;14.68;45.01
44027;BME280;29696;55.698;37.460;2022-09-01T10:40:37;98961.97;;;14.59;45.38
44027;BME280;29696;55.698;37.460;2022-09-01T10:43:25;98974.09;;;14.62;45.29
44027;BME280;29696;55.698;37.460;2022-09-01T10:45:53;98973.53;;;14.35;45.45
44027;BME280;29696;55.698;37.460;2022-09-01T10:48:40;98967.06;;;14.69;45.58
44027;BME280;29696;55.698;37.460;2022-09-01T10:51:40;98965.94;;;14.87;45.46
44027;BME280;29696;55.698;37.460;2022-09-01T10:54:08;98970.38;;;14.71;44.91
44027;BME280;29696;55.698;37.460;2022-09-01T10:56:55;98968.88;;;14.69;44.51
44027;BME280;29696;55.698;37.460;2022-09-01T10:59:26;98971.44;;;14.62;44.74
44027;BME280;29696;55.698;37.460;2022-09-01T11:02:15;98975.88;;;14.70;45.28
44027;BME280;29696;55.698;37.460;2022-09-01T11:07:51;98963.31;;;14.24;45.78
44027;BME280;29696;55.698;37.460;2022-09-01T11:13:59;98973.16;;;14.55;45.74
44027;BME280;29696;55.698;37.460;2022-09-01T11:27:12;98968.66;;;15.39;43.43
44027;BME280;29696;55.698;37.460;2022-09-01T11:30:01;98966.91;;;15.32;43.56
44027;BME280;29696;55.698;37.460;2022-09-01T11:32:36;98968.47;;;15.41;43.50
44027;BME280;29696;55.698;37.460;2022-09-01T11:35:15;98970.13;;;15.42;43.65
44027;BME280;29696;55.698;37.460;2022-09-01T11:37:42;98962.59;;;15.07;43.09
44027;BME280;29696;55.698;37.460;2022-09-01T11:40:19;98961.72;;;15.15;44.11
44027;BME280;29696;55.698;37.460;2022-09-01T11:42:47;98963.25;;;15.10;43.50
44027;BME280;29696;55.698;37.460;2022-09-01T11:45:36;98957.84;;;15.41;43.54
44027;BME280;29696;55.698;37.460;2022-09-01T11:48:09;98956.69;;;15.20;43.67
44027;BME280;29696;55.698;37.460;2022-09-01T11:50:39;98965.19;;;15.16;43.38
44027;BME280;29696;55.698;37.460;2022-09-01T11:55:55;98948.63;;;15.43;43.74
44027;BME280;29696;55.698;37.460;2022-09-01T11:58:31;98950.84;;;15.55;43.72
44027;BME280;29696;55.698;37.460;2022-09-01T12:01:17;98947.84;;;15.72;43.24
44027;BME280;29696;55.698;37.460;2022-09-01T12:03:45;98935.69;;;15.55;42.20
44027;BME280;29696;55.698;37.460;2022-09-01T12:06:34;98934.44;;;15.66;42.52
44027;BME280;29696;55.698;37.460;2022-09-01T12:09:03;98935.69;;;15.40;42.87
44027;BME280;29696;55.698;37.460;2022-09-01T12:11:32;98945.06;;;15.36;42.80
44027;BME280;29696;55.698;37.460;2022-09-01T12:14:20;98935.91;;;15.53;43.03
44027;BME280;29696;55.698;37.460;2022-09-01T12:16:56;98939.81;;;15.43;42.85
44027;BME280;29696;55.698;37.460;2022-09-01T12:19:26;98939.81;;;15.43;42.65
44027;BME280;29696;55.698;37.460;2022-09-01T12:22:14;98937.09;;;15.66;42.40
44027;BME280;29696;55.698;37.460;2022-09-01T12:24:47;98935.34;;;15.58;41.55
44027;BME280;29696;55.698;37.460;2022-09-01T12:27:14;98931.09;;;15.64;41.09
44027;BME280;29696;55.698;37.460;2022-09-01T12:29:41;98926.59;;;15.64;40.04
44027;BME280;29696;55.698;37.460;2022-09-01T12:32:08;98936.06;;;15.52;40.51
44027;BME280;29696;55.698;37.460;2022-09-01T12:35:00;98921.47;;;15.63;40.01
44027;BME280;29696;55.698;37.460;2022-09-01T12:37:27;98914.19;;;15.27;40.11
44027;BME280;29696;55.698;37.460;2022-09-01T12:39:55;98923.75;;;15.36;39.89
44027;BME280;29696;55.698;37.460;2022-09-01T12:45:38;98930.22;;;15.86;40.39
44027;BME280;29696;55.698;37.460;2022-09-01T12:48:05;98919.50;;;15.80;39.35
44027;BME280;29696;55.698;37.460;2022-09-01T12:50:35;98924.16;;;15.78;40.10
44027;BME280;29696;55.698;37.460;2022-09-01T12:53:02;98926.75;;;15.71;39.88
44027;BME280;29696;55.698;37.460;2022-09-01T12:55:34;98918.28;;;15.82;40.24
44027;BME280;29696;55.698;37.460;2022-09-01T12:58:04;98916.91;;;15.86;39.96
44027;BME280;29696;55.698;37.460;2022-09-01T13:00:34;98902.84;;;15.92;39.99
44027;BME280;29696;55.698;37.460;2022-09-01T13:03:22;98916.59;;;16.11;39.72
44027;BME280;29696;55.698;37.460;2022-09-01T13:05:52;98910.09;;;15.84;39.04
44027;BME280;29696;55.698;37.460;2022-09-01T13:08:20;98909.00;;;15.78;39.02
44027;BME280;29696;55.698;37.460;2022-09-01T13:10:50;98913.69;;;15.76;39.38
44027;BME280;29696;55.698;37.460;2022-09-01T13:13:19;98912.28;;;15.65;40.23
44027;BME280;29696;55.698;37.460;2022-09-01T13:15:48;98913.13;;;15.66;40.04
44027;BME280;29696;55.698;37.460;2022-09-01T13:18:22;98907.63;;;15.67;40.10
44027;BME280;29696;55.698;37.460;2022-09-01T13:20:50;98911.84;;;15.62;40.47
44027;BME280;29696;55.698;37.460;2022-09-01T13:23:18;98916.53;;;15.60;40.52
44027;BME280;29696;55.698;37.460;2022-09-01T13:25:45;98902.63;;;15.49;40.50
44027;BME280;29696;55.698;37.460;2022-09-01T13:28:13;98911.84;;;15.47;41.41
44027;BME280;29696;55.698;37.460;2022-09-01T13:30:40;98910.81;;;15.33;41.08
44027;BME280;29696;55.698;37.460;2022-09-01T13:33:08;98912.28;;;15.36;41.00
44027;BME280;29696;55.698;37.460;2022-09-01T13:35:37;98906.03;;;15.43;41.50
44027;BME280;29696;55.698;37.460;2022-09-01T13:38:04;98901.66;;;15.50;41.15
44027;BME280;29696;55.698;37.460;2022-09-01T13:40:30;98909.06;;;15.55;40.98
44027;BME280;29696;55.698;37.460;2022-09-01T13:42:56;98898.63;;;15.53;41.49
44027;BME280;29696;55.698;37.460;2022-09-01T13:45:24;98904.09;;;15.52;40.89
44027;BME280;29696;55.698;37.460;2022-09-01T13:47:51;98905.59;;;15.55;41.41
44027;BME280;29696;55.698;37.460;2022-09-01T13:50:20;98902.91;;;15.55;41.70
44027;BME280;29696;55.698;37.460;2022-09-01T13:52:51;98902.63;;;15.49;42.17
44027;BME280;29696;55.698;37.460;2022-09-01T13:55:21;98906.88;;;15.44;42.13